You are not logged in, Click here to log in
ICAO: FMEE Country: St Denis
Latitude: -20.8871 Longitude: 55.5103
Total Arrivals: 0 Total Departures: 1
Latest Arrival: (-). Latest Departure: UU130 (FMEE-FIMP)Stone. Chang
Scenery:
METAR : FMEE 210730Z AUTO 10016KT 9999 FEW068 BKN170 25/19 Q1021 NOSIG

Roland Garros Airport